sensor_id;sensor_type;location;lat;lon;timestamp;pressure;altitude;pressure_sealevel;temperature;humidity
250;BME280;109;19.806;-70.704;2023-12-29T00:02:06;101346.53;;;26.01;46.42
250;BME280;109;19.806;-70.704;2023-12-29T00:04:34;101349.59;;;25.97;46.11
250;BME280;109;19.806;-70.704;2023-12-29T00:07:02;101356.81;;;26.09;46.15
250;BME280;109;19.806;-70.704;2023-12-29T00:09:28;101356.06;;;26.07;46.31
250;BME280;109;19.806;-70.704;2023-12-29T00:11:55;101342.53;;;26.19;45.98
250;BME280;109;19.806;-70.704;2023-12-29T00:14:22;101354.78;;;26.12;46.43
250;BME280;109;19.806;-70.704;2023-12-29T00:16:48;101362.75;;;26.14;45.91
250;BME280;109;19.806;-70.704;2023-12-29T00:19:14;101357.16;;;26.04;46.06
250;BME280;109;19.806;-70.704;2023-12-29T00:21:41;101368.72;;;26.19;45.70
250;BME280;109;19.806;-70.704;2023-12-29T00:24:08;101365.69;;;26.11;46.38
250;BME280;109;19.806;-70.704;2023-12-29T00:26:34;101362.25;;;26.22;45.78
250;BME280;109;19.806;-70.704;2023-12-29T00:29:02;101366.34;;;26.02;46.07
250;BME280;109;19.806;-70.704;2023-12-29T00:31:29;101364.97;;;25.96;46.00
250;BME280;109;19.806;-70.704;2023-12-29T00:33:56;101368.53;;;25.97;46.42
250;BME280;109;19.806;-70.704;2023-12-29T00:36:24;101370.16;;;25.99;46.33
250;BME280;109;19.806;-70.704;2023-12-29T00:38:50;101370.47;;;26.07;46.19
250;BME280;109;19.806;-70.704;2023-12-29T00:41:17;101361.28;;;25.97;46.30
250;BME280;109;19.806;-70.704;2023-12-29T00:43:43;101366.03;;;25.94;46.03
250;BME280;109;19.806;-70.704;2023-12-29T00:46:10;101366.34;;;26.02;46.07
250;BME280;109;19.806;-70.704;2023-12-29T00:48:40;101377.63;;;25.96;46.12
250;BME280;109;19.806;-70.704;2023-12-29T00:51:06;101376.44;;;26.00;46.42
250;BME280;109;19.806;-70.704;2023-12-29T00:53:34;101374.03;;;26.08;45.88
250;BME280;109;19.806;-70.704;2023-12-29T00:56:02;101375.22;;;25.91;45.99
250;BME280;109;19.806;-70.704;2023-12-29T00:58:29;101358.50;;;25.86;46.47
250;BME280;109;19.806;-70.704;2023-12-29T01:00:55;101366.63;;;25.73;46.73
250;BME280;109;19.806;-70.704;2023-12-29T01:03:22;101370.38;;;25.96;46.52
250;BME280;109;19.806;-70.704;2023-12-29T01:05:48;101365.47;;;25.38;47.38
250;BME280;109;19.806;-70.704;2023-12-29T01:08:14;101378.63;;;25.30;47.50
250;BME280;109;19.806;-70.704;2023-12-29T01:10:41;101388.59;;;25.42;47.12
250;BME280;109;19.806;-70.704;2023-12-29T01:13:07;101388.53;;;25.81;46.41
250;BME280;109;19.806;-70.704;2023-12-29T01:15:34;101387.00;;;25.90;46.31
250;BME280;109;19.806;-70.704;2023-12-29T01:18:01;101375.44;;;26.01;45.99
250;BME280;109;19.806;-70.704;2023-12-29T01:20:27;101381.59;;;25.90;46.67
250;BME280;109;19.806;-70.704;2023-12-29T01:22:54;101379.34;;;25.84;46.76
250;BME280;109;19.806;-70.704;2023-12-29T01:25:20;101382.69;;;25.75;46.25
250;BME280;109;19.806;-70.704;2023-12-29T01:27:54;101384.88;;;25.82;46.51
250;BME280;109;19.806;-70.704;2023-12-29T01:30:20;101380.75;;;25.90;46.29
250;BME280;109;19.806;-70.704;2023-12-29T01:32:53;101387.47;;;25.97;45.96
250;BME280;109;19.806;-70.704;2023-12-29T01:35:20;101390.16;;;25.84;46.26
250;BME280;109;19.806;-70.704;2023-12-29T01:37:53;101397.50;;;25.95;46.07
250;BME280;109;19.806;-70.704;2023-12-29T01:40:22;101401.19;;;25.94;45.79
250;BME280;109;19.806;-70.704;2023-12-29T01:42:56;101395.56;;;25.97;45.79
250;BME280;109;19.806;-70.704;2023-12-29T01:45:24;101408.13;;;25.98;46.03
250;BME280;109;19.806;-70.704;2023-12-29T01:47:58;101396.34;;;25.99;46.39
250;BME280;109;19.806;-70.704;2023-12-29T01:50:25;101402.63;;;25.87;46.32
250;BME280;109;19.806;-70.704;2023-12-29T01:53:01;101397.06;;;26.01;46.16
250;BME280;109;19.806;-70.704;2023-12-29T01:55:28;101405.06;;;26.02;46.04
250;BME280;109;19.806;-70.704;2023-12-29T01:58:02;101410.38;;;26.04;46.47
250;BME280;109;19.806;-70.704;2023-12-29T02:00:28;101410.38;;;26.04;45.76
250;BME280;109;19.806;-70.704;2023-12-29T02:03:03;101409.84;;;25.99;46.17
250;BME280;109;19.806;-70.704;2023-12-29T02:05:50;101412.97;;;25.80;46.30
250;BME280;109;19.806;-70.704;2023-12-29T02:08:25;101417.84;;;25.75;46.60
250;BME280;109;19.806;-70.704;2023-12-29T02:10:52;101414.34;;;25.60;46.86
250;BME280;109;19.806;-70.704;2023-12-29T02:13:25;101424.41;;;25.58;47.29
250;BME280;109;19.806;-70.704;2023-12-29T02:15:55;101427.97;;;25.46;46.96
250;BME280;109;19.806;-70.704;2023-12-29T02:18:32;101429.44;;;25.50;46.88
250;BME280;109;19.806;-70.704;2023-12-29T02:21:07;101425.47;;;25.43;47.37
250;BME280;109;19.806;-70.704;2023-12-29T02:23:34;101422.97;;;25.40;47.23
250;BME280;109;19.806;-70.704;2023-12-29T02:26:10;101420.59;;;25.35;47.06
250;BME280;109;19.806;-70.704;2023-12-29T02:28:48;101425.13;;;25.35;47.24
250;BME280;109;19.806;-70.704;2023-12-29T02:31:30;101428.13;;;25.30;47.53
250;BME280;109;19.806;-70.704;2023-12-29T02:33:59;101422.94;;;25.27;47.45
250;BME280;109;19.806;-70.704;2023-12-29T02:36:34;101426.69;;;25.25;47.89
250;BME280;109;19.806;-70.704;2023-12-29T02:39:14;101424.41;;;25.19;47.72
250;BME280;109;19.806;-70.704;2023-12-29T02:41:41;101425.38;;;25.17;47.53
250;BME280;109;19.806;-70.704;2023-12-29T02:44:14;101422.66;;;25.17;47.49
250;BME280;109;19.806;-70.704;2023-12-29T02:46:41;101425.75;;;25.11;47.43
250;BME280;109;19.806;-70.704;2023-12-29T02:49:14;101427.06;;;25.06;47.88
250;BME280;109;19.806;-70.704;2023-12-29T02:51:42;101429.66;;;25.07;48.21
250;BME280;109;19.806;-70.704;2023-12-29T02:54:16;101429.94;;;25.03;47.93
250;BME280;109;19.806;-70.704;2023-12-29T02:56:51;101430.81;;;25.03;47.83
250;BME280;109;19.806;-70.704;2023-12-29T02:59:24;101421.31;;;25.10;47.83
250;BME280;109;19.806;-70.704;2023-12-29T03:01:51;101423.63;;;24.90;47.63
250;BME280;109;19.806;-70.704;2023-12-29T03:04:23;101422.19;;;24.84;47.92
250;BME280;109;19.806;-70.704;2023-12-29T03:07:03;101418.44;;;24.87;47.88
250;BME280;109;19.806;-70.704;2023-12-29T03:09:30;101412.59;;;24.80;48.11
250;BME280;109;19.806;-70.704;2023-12-29T03:12:04;101407.00;;;24.83;48.26
250;BME280;109;19.806;-70.704;2023-12-29T03:14:30;101415.09;;;24.83;47.91
250;BME280;109;19.806;-70.704;2023-12-29T03:17:03;101410.34;;;24.72;48.23
250;BME280;109;19.806;-70.704;2023-12-29T03:19:30;101396.03;;;24.58;48.46
250;BME280;109;19.806;-70.704;2023-12-29T03:22:03;101402.16;;;24.74;48.37
250;BME280;109;19.806;-70.704;2023-12-29T03:24:30;101396.75;;;24.74;48.32
250;BME280;109;19.806;-70.704;2023-12-29T03:27:03;101386.94;;;24.73;48.51
250;BME280;109;19.806;-70.704;2023-12-29T03:29:30;101391.00;;;24.66;48.62
250;BME280;109;19.806;-70.704;2023-12-29T03:32:04;101391.97;;;24.65;48.42
250;BME280;109;19.806;-70.704;2023-12-29T03:34:32;101384.28;;;24.59;48.60
250;BME280;109;19.806;-70.704;2023-12-29T03:37:05;101383.13;;;24.63;48.57
250;BME280;109;19.806;-70.704;2023-12-29T03:39:32;101389.28;;;24.79;48.53
250;BME280;109;19.806;-70.704;2023-12-29T03:42:07;101384.22;;;24.73;48.15
250;BME280;109;19.806;-70.704;2023-12-29T03:44:34;101379.78;;;24.86;48.33
250;BME280;109;19.806;-70.704;2023-12-29T03:47:15;101393.19;;;24.73;48.21
250;BME280;109;19.806;-70.704;2023-12-29T03:49:48;101380.75;;;24.85;48.07
250;BME280;109;19.806;-70.704;2023-12-29T03:52:16;101381.63;;;24.86;48.39
250;BME280;109;19.806;-70.704;2023-12-29T03:54:48;101378.19;;;24.69;48.59
250;BME280;109;19.806;-70.704;2023-12-29T03:57:15;101379.13;;;24.83;48.11
250;BME280;109;19.806;-70.704;2023-12-29T03:59:48;101372.75;;;24.84;47.92
250;BME280;109;19.806;-70.704;2023-12-29T04:02:15;101373.97;;;24.92;48.23
250;BME280;109;19.806;-70.704;2023-12-29T04:04:49;101378.41;;;24.93;48.13
250;BME280;109;19.806;-70.704;2023-12-29T04:07:29;101368.38;;;24.95;47.90
250;BME280;109;19.806;-70.704;2023-12-29T04:09:56;101371.94;;;24.96;47.64
250;BME280;109;19.806;-70.704;2023-12-29T04:12:29;101371.69;;;24.86;47.78
250;BME280;109;19.806;-70.704;2023-12-29T04:14:56;101372.31;;;24.77;47.75
250;BME280;109;19.806;-70.704;2023-12-29T04:17:30;101376.75;;;24.64;47.92
250;BME280;109;19.806;-70.704;2023-12-29T04:20:05;101371.34;;;24.64;47.59
250;BME280;109;19.806;-70.704;2023-12-29T04:22:39;101373.81;;;24.54;47.97
250;BME280;109;19.806;-70.704;2023-12-29T04:25:07;101376.66;;;24.65;48.04
250;BME280;109;19.806;-70.704;2023-12-29T04:27:41;101372.59;;;24.58;48.05
250;BME280;109;19.806;-70.704;2023-12-29T04:30:08;101379.06;;;24.70;47.97
250;BME280;109;19.806;-70.704;2023-12-29T04:32:41;101368.06;;;24.59;48.13
250;BME280;109;19.806;-70.704;2023-12-29T04:35:09;101381.91;;;24.54;48.19
250;BME280;109;19.806;-70.704;2023-12-29T04:37:45;101379.47;;;24.50;48.02
250;BME280;109;19.806;-70.704;2023-12-29T04:40:28;101377.59;;;24.37;48.08
250;BME280;109;19.806;-70.704;2023-12-29T04:42:55;101372.78;;;24.42;47.93
250;BME280;109;19.806;-70.704;2023-12-29T04:45:27;101375.25;;;24.45;48.07
250;BME280;109;19.806;-70.704;2023-12-29T04:47:55;101387.91;;;24.31;48.02
250;BME280;109;19.806;-70.704;2023-12-29T04:50:27;101385.00;;;24.34;47.87
250;BME280;109;19.806;-70.704;2023-12-29T04:52:54;101381.84;;;24.27;48.23
250;BME280;109;19.806;-70.704;2023-12-29T04:55:27;101390.09;;;24.24;48.49
250;BME280;109;19.806;-70.704;2023-12-29T04:57:54;101393.75;;;24.23;48.49
250;BME280;109;19.806;-70.704;2023-12-29T05:00:26;101386.16;;;24.16;48.15
250;BME280;109;19.806;-70.704;2023-12-29T05:02:53;101391.84;;;24.11;48.19
250;BME280;109;19.806;-70.704;2023-12-29T05:05:33;101386.63;;;24.08;48.37
250;BME280;109;19.806;-70.704;2023-12-29T05:08:12;101389.44;;;24.06;48.39
250;BME280;109;19.806;-70.704;2023-12-29T05:10:39;101376.81;;;24.07;48.48
250;BME280;109;19.806;-70.704;2023-12-29T05:13:11;101379.72;;;24.04;48.16
250;BME280;109;19.806;-70.704;2023-12-29T05:15:38;101377.78;;;24.06;48.55
250;BME280;109;19.806;-70.704;2023-12-29T05:18:10;101376.25;;;24.02;48.60
250;BME280;109;19.806;-70.704;2023-12-29T05:20:37;101372.00;;;23.98;48.44
250;BME280;109;19.806;-70.704;2023-12-29T05:23:10;101369.72;;;23.92;48.80
250;BME280;109;19.806;-70.704;2023-12-29T05:25:39;101368.94;;;24.04;48.22
250;BME280;109;19.806;-70.704;2023-12-29T05:28:12;101367.78;;;23.94;48.55
250;BME280;109;19.806;-70.704;2023-12-29T05:30:39;101366.25;;;24.04;48.41
250;BME280;109;19.806;-70.704;2023-12-29T05:33:12;101354.69;;;23.88;48.63
250;BME280;109;19.806;-70.704;2023-12-29T05:35:39;101358.06;;;23.91;48.70
250;BME280;109;19.806;-70.704;2023-12-29T05:38:11;101353.63;;;24.60;47.65
250;BME280;109;19.806;-70.704;2023-12-29T05:40:38;101364.38;;;25.28;45.69
250;BME280;109;19.806;-70.704;2023-12-29T05:43:11;101356.28;;;24.19;47.79
250;BME280;109;19.806;-70.704;2023-12-29T05:45:38;101355.69;;;24.56;47.22
250;BME280;109;19.806;-70.704;2023-12-29T05:48:10;101349.78;;;23.80;48.85
250;BME280;109;19.806;-70.704;2023-12-29T05:50:37;101357.75;;;23.82;48.80
250;BME280;109;19.806;-70.704;2023-12-29T05:53:09;101348.72;;;23.83;48.59
250;BME280;109;19.806;-70.704;2023-12-29T05:55:36;101354.00;;;23.98;48.33
250;BME280;109;19.806;-70.704;2023-12-29T05:58:08;101342.69;;;23.79;48.76
250;BME280;109;19.806;-70.704;2023-12-29T06:00:36;101341.22;;;23.88;48.76
250;BME280;109;19.806;-70.704;2023-12-29T06:03:16;101339.72;;;23.54;49.50
250;BME280;109;19.806;-70.704;2023-12-29T06:06:03;101331.56;;;23.69;49.22
250;BME280;109;19.806;-70.704;2023-12-29T06:08:36;101324.00;;;24.45;47.78
250;BME280;109;19.806;-70.704;2023-12-29T06:11:03;101318.31;;;24.77;46.73
250;BME280;109;19.806;-70.704;2023-12-29T06:13:36;101315.34;;;24.40;47.40
250;BME280;109;19.806;-70.704;2023-12-29T06:16:03;101308.19;;;24.54;47.63
250;BME280;109;19.806;-70.704;2023-12-29T06:18:36;101307.06;;;24.43;46.90
250;BME280;109;19.806;-70.704;2023-12-29T06:21:03;101311.06;;;23.81;48.36
250;BME280;109;19.806;-70.704;2023-12-29T06:23:44;101309.91;;;23.71;49.01
250;BME280;109;19.806;-70.704;2023-12-29T06:26:19;101308.19;;;23.84;48.59
250;BME280;109;19.806;-70.704;2023-12-29T06:28:46;101300.28;;;23.95;48.51
250;BME280;109;19.806;-70.704;2023-12-29T06:31:19;101294.53;;;23.87;48.60
250;BME280;109;19.806;-70.704;2023-12-29T06:33:46;101292.13;;;23.83;48.83
250;BME280;109;19.806;-70.704;2023-12-29T06:36:19;101282.63;;;23.77;48.52
250;BME280;109;19.806;-70.704;2023-12-29T06:38:46;101284.53;;;23.89;48.60
250;BME280;109;19.806;-70.704;2023-12-29T06:41:20;101288.97;;;23.90;48.29
250;BME280;109;19.806;-70.704;2023-12-29T06:43:47;101282.88;;;23.87;48.68
250;BME280;109;19.806;-70.704;2023-12-29T06:46:19;101282.69;;;23.90;48.25
250;BME280;109;19.806;-70.704;2023-12-29T06:48:46;101267.50;;;23.89;48.40
250;BME280;109;19.806;-70.704;2023-12-29T06:51:20;101264.63;;;23.78;48.76
250;BME280;109;19.806;-70.704;2023-12-29T06:53:49;101265.38;;;23.65;48.95
250;BME280;109;19.806;-70.704;2023-12-29T06:56:21;101262.03;;;23.76;48.65
250;BME280;109;19.806;-70.704;2023-12-29T06:58:48;101260.75;;;23.53;49.04
250;BME280;109;19.806;-70.704;2023-12-29T07:01:21;101255.84;;;23.60;48.69
250;BME280;109;19.806;-70.704;2023-12-29T07:03:48;101260.72;;;23.67;48.76
250;BME280;109;19.806;-70.704;2023-12-29T07:06:20;101249.22;;;23.65;48.68
250;BME280;109;19.806;-70.704;2023-12-29T07:08:47;101248.13;;;23.82;48.64
250;BME280;109;19.806;-70.704;2023-12-29T07:11:20;101244.47;;;23.83;48.52
250;BME280;109;19.806;-70.704;2023-12-29T07:13:47;101241.28;;;24.05;48.15
250;BME280;109;19.806;-70.704;2023-12-29T07:16:19;101246.47;;;23.94;48.16
250;BME280;109;19.806;-70.704;2023-12-29T07:18:46;101244.63;;;25.14;45.78
250;BME280;109;19.806;-70.704;2023-12-29T07:21:19;101241.00;;;24.22;47.84
250;BME280;109;19.806;-70.704;2023-12-29T07:23:53;101236.41;;;25.03;46.28
250;BME280;109;19.806;-70.704;2023-12-29T07:26:26;101237.50;;;24.07;47.86
250;BME280;109;19.806;-70.704;2023-12-29T07:28:53;101239.66;;;23.74;48.20
250;BME280;109;19.806;-70.704;2023-12-29T07:31:26;101229.38;;;23.66;48.72
250;BME280;109;19.806;-70.704;2023-12-29T07:33:53;101225.16;;;23.77;48.47
250;BME280;109;19.806;-70.704;2023-12-29T07:36:25;101218.03;;;24.17;47.76
250;BME280;109;19.806;-70.704;2023-12-29T07:38:52;101210.47;;;24.88;46.44
250;BME280;109;19.806;-70.704;2023-12-29T07:41:24;101198.31;;;23.47;48.88
250;BME280;109;19.806;-70.704;2023-12-29T07:43:51;101205.06;;;23.39;49.19
250;BME280;109;19.806;-70.704;2023-12-29T07:46:24;101197.28;;;23.35;49.04
250;BME280;109;19.806;-70.704;2023-12-29T07:48:52;101195.81;;;23.29;49.37
250;BME280;109;19.806;-70.704;2023-12-29T07:51:25;101200.22;;;23.45;49.09
250;BME280;109;19.806;-70.704;2023-12-29T07:53:52;101199.88;;;23.36;49.20
250;BME280;109;19.806;-70.704;2023-12-29T07:56:25;101195.50;;;23.62;48.90
250;BME280;109;19.806;-70.704;2023-12-29T07:58:52;101197.53;;;23.45;49.00
250;BME280;109;19.806;-70.704;2023-12-29T08:01:24;101196.22;;;23.37;49.20
250;BME280;109;19.806;-70.704;2023-12-29T08:03:51;101195.53;;;23.34;49.05
250;BME280;109;19.806;-70.704;2023-12-29T08:06:24;101190.75;;;23.39;49.22
250;BME280;109;19.806;-70.704;2023-12-29T08:08:51;101191.28;;;23.44;49.13
250;BME280;109;19.806;-70.704;2023-12-29T08:11:32;101189.19;;;23.49;49.00
250;BME280;109;19.806;-70.704;2023-12-29T08:14:05;101190.16;;;23.34;49.04
250;BME280;109;19.806;-70.704;2023-12-29T08:16:38;101199.56;;;23.41;48.93
250;BME280;109;19.806;-70.704;2023-12-29T08:19:12;101182.84;;;23.36;49.16
250;BME280;109;19.806;-70.704;2023-12-29T08:21:41;101189.28;;;23.33;49.16
250;BME280;109;19.806;-70.704;2023-12-29T08:24:13;101189.38;;;23.32;49.17
250;BME280;109;19.806;-70.704;2023-12-29T08:26:45;101187.00;;;23.27;49.38
250;BME280;109;19.806;-70.704;2023-12-29T08:29:18;101192.53;;;23.24;49.13
250;BME280;109;19.806;-70.704;2023-12-29T08:31:45;101202.16;;;23.42;49.18
250;BME280;109;19.806;-70.704;2023-12-29T08:34:19;101197.44;;;24.42;47.12
250;BME280;109;19.806;-70.704;2023-12-29T08:36:45;101203.13;;;23.41;49.26
250;BME280;109;19.806;-70.704;2023-12-29T08:39:18;101205.50;;;23.60;48.50
250;BME280;109;19.806;-70.704;2023-12-29T08:41:54;101206.47;;;23.59;48.76
250;BME280;109;19.806;-70.704;2023-12-29T08:44:40;101206.75;;;23.69;48.35
250;BME280;109;19.806;-70.704;2023-12-29T08:47:13;101206.41;;;23.32;49.22
250;BME280;109;19.806;-70.704;2023-12-29T08:49:40;101211.31;;;23.40;48.97
250;BME280;109;19.806;-70.704;2023-12-29T08:52:15;101198.56;;;23.70;48.38
250;BME280;109;19.806;-70.704;2023-12-29T08:54:42;101198.91;;;23.93;47.90
250;BME280;109;19.806;-70.704;2023-12-29T08:57:14;101203.00;;;23.86;48.11
250;BME280;109;19.806;-70.704;2023-12-29T08:59:41;101194.25;;;23.25;48.94
250;BME280;109;19.806;-70.704;2023-12-29T09:02:15;101197.81;;;23.26;49.03
250;BME280;109;19.806;-70.704;2023-12-29T09:05:02;101200.69;;;23.23;48.96
250;BME280;109;19.806;-70.704;2023-12-29T09:07:36;101203.66;;;23.18;49.06
250;BME280;109;19.806;-70.704;2023-12-29T09:10:02;101200.41;;;23.13;49.24
250;BME280;109;19.806;-70.704;2023-12-29T09:12:41;101198.47;;;23.15;49.40
250;BME280;109;19.806;-70.704;2023-12-29T09:15:08;101197.16;;;23.51;48.55
250;BME280;109;19.806;-70.704;2023-12-29T09:17:41;101194.91;;;23.71;47.95
250;BME280;109;19.806;-70.704;2023-12-29T09:20:08;101197.44;;;23.60;48.02
250;BME280;109;19.806;-70.704;2023-12-29T09:22:42;101202.63;;;23.63;48.09
250;BME280;109;19.806;-70.704;2023-12-29T09:25:09;101212.34;;;23.80;47.73
250;BME280;109;19.806;-70.704;2023-12-29T09:27:42;101216.47;;;23.71;48.05
250;BME280;109;19.806;-70.704;2023-12-29T09:30:10;101224.19;;;23.63;47.80
250;BME280;109;19.806;-70.704;2023-12-29T09:32:44;101224.00;;;23.66;48.00
250;BME280;109;19.806;-70.704;2023-12-29T09:35:10;101224.56;;;23.86;47.85
250;BME280;109;19.806;-70.704;2023-12-29T09:37:44;101222.84;;;23.42;48.29
250;BME280;109;19.806;-70.704;2023-12-29T09:40:18;101230.44;;;23.35;48.45
250;BME280;109;19.806;-70.704;2023-12-29T09:42:52;101221.50;;;23.49;48.43
250;BME280;109;19.806;-70.704;2023-12-29T09:45:23;101221.66;;;23.18;48.82
250;BME280;109;19.806;-70.704;2023-12-29T09:47:57;101221.47;;;23.21;48.94
250;BME280;109;19.806;-70.704;2023-12-29T09:50:25;101220.41;;;23.23;48.87
250;BME280;109;19.806;-70.704;2023-12-29T09:53:00;101226.63;;;23.39;48.83
250;BME280;109;19.806;-70.704;2023-12-29T09:55:28;101234.06;;;23.20;48.78
250;BME280;109;19.806;-70.704;2023-12-29T09:58:01;101237.38;;;23.39;48.79
250;BME280;109;19.806;-70.704;2023-12-29T10:00:28;101239.00;;;23.28;48.77
250;BME280;109;19.806;-70.704;2023-12-29T10:03:02;101241.19;;;23.21;48.66
250;BME280;109;19.806;-70.704;2023-12-29T10:05:51;101247.38;;;23.37;48.44
250;BME280;109;19.806;-70.704;2023-12-29T10:08:27;101251.59;;;23.41;48.32
250;BME280;109;19.806;-70.704;2023-12-29T10:10:58;101245.84;;;24.17;46.82
250;BME280;109;19.806;-70.704;2023-12-29T10:13:34;101251.44;;;24.14;46.86
250;BME280;109;19.806;-70.704;2023-12-29T10:18:57;101250.16;;;24.34;46.89
250;BME280;109;19.806;-70.704;2023-12-29T10:22:15;101257.91;;;24.26;46.46
250;BME280;109;19.806;-70.704;2023-12-29T10:24:51;101263.97;;;24.15;46.61
250;BME280;109;19.806;-70.704;2023-12-29T10:30:10;101259.88;;;24.36;46.22
250;BME280;109;19.806;-70.704;2023-12-29T10:32:58;101268.25;;;24.32;46.61
250;BME280;109;19.806;-70.704;2023-12-29T10:35:36;101273.97;;;24.27;46.66
250;BME280;109;19.806;-70.704;2023-12-29T10:38:12;101277.88;;;24.36;46.47
250;BME280;109;19.806;-70.704;2023-12-29T10:40:45;101273.78;;;24.30;46.67
250;BME280;109;19.806;-70.704;2023-12-29T10:43:12;101274.06;;;24.11;46.77
250;BME280;109;19.806;-70.704;2023-12-29T10:45:44;101277.13;;;24.20;46.51
250;BME280;109;19.806;-70.704;2023-12-29T10:48:11;101275.84;;;23.98;47.07
250;BME280;109;19.806;-70.704;2023-12-29T10:50:43;101278.66;;;24.24;46.54
250;BME280;109;19.806;-70.704;2023-12-29T10:53:14;101277.66;;;23.98;47.13
250;BME280;109;19.806;-70.704;2023-12-29T10:55:43;101281.47;;;24.22;46.51
250;BME280;109;19.806;-70.704;2023-12-29T10:58:09;101284.56;;;24.16;46.54
250;BME280;109;19.806;-70.704;2023-12-29T11:00:36;101291.56;;;24.19;46.39
250;BME280;109;19.806;-70.704;2023-12-29T11:03:03;101294.25;;;24.19;46.47
250;BME280;109;19.806;-70.704;2023-12-29T11:05:29;101295.91;;;24.21;46.72
250;BME280;109;19.806;-70.704;2023-12-29T11:07:56;101300.47;;;24.06;46.71
250;BME280;109;19.806;-70.704;2023-12-29T11:10:25;101305.56;;;24.11;46.62
250;BME280;109;19.806;-70.704;2023-12-29T11:12:54;101301.81;;;24.14;46.88
250;BME280;109;19.806;-70.704;2023-12-29T11:15:21;101310.75;;;24.28;46.58
250;BME280;109;19.806;-70.704;2023-12-29T11:17:51;101313.53;;;24.41;46.47
250;BME280;109;19.806;-70.704;2023-12-29T11:20:21;101311.72;;;24.27;46.35
250;BME280;109;19.806;-70.704;2023-12-29T11:22:48;101319.97;;;24.24;46.29
250;BME280;109;19.806;-70.704;2023-12-29T11:25:15;101327.41;;;24.35;46.23
250;BME280;109;19.806;-70.704;2023-12-29T11:27:42;101326.53;;;24.34;46.12
250;BME280;109;19.806;-70.704;2023-12-29T11:30:11;101332.25;;;24.30;46.25
250;BME280;109;19.806;-70.704;2023-12-29T11:39:04;101346.09;;;24.24;46.38
250;BME280;109;19.806;-70.704;2023-12-29T11:41:47;101334.72;;;24.19;46.47
250;BME280;109;19.806;-70.704;2023-12-29T11:44:25;101345.22;;;24.09;46.48
250;BME280;109;19.806;-70.704;2023-12-29T11:46:53;101346.47;;;24.32;46.21
250;BME280;109;19.806;-70.704;2023-12-29T11:49:20;101346.38;;;24.33;46.43
250;BME280;109;19.806;-70.704;2023-12-29T11:51:47;101355.66;;;24.29;46.43
250;BME280;109;19.806;-70.704;2023-12-29T11:54:27;101350.00;;;24.46;46.53
250;BME280;109;19.806;-70.704;2023-12-29T11:56:54;101349.63;;;24.53;46.19
250;BME280;109;19.806;-70.704;2023-12-29T11:59:22;101357.63;;;24.54;46.59
250;BME280;109;19.806;-70.704;2023-12-29T12:01:57;101361.94;;;24.57;46.13
250;BME280;109;19.806;-70.704;2023-12-29T12:04:37;101372.94;;;24.54;46.30
250;BME280;109;19.806;-70.704;2023-12-29T12:07:08;101371.44;;;24.62;45.98
250;BME280;109;19.806;-70.704;2023-12-29T12:09:38;101368.47;;;24.67;46.42
250;BME280;109;19.806;-70.704;2023-12-29T12:12:05;101378.56;;;24.77;46.18
250;BME280;109;19.806;-70.704;2023-12-29T12:14:50;101382.56;;;24.85;46.02
250;BME280;109;19.806;-70.704;2023-12-29T12:17:33;101399.06;;;24.94;45.77
250;BME280;109;19.806;-70.704;2023-12-29T12:20:09;101399.84;;;25.09;45.87
250;BME280;109;19.806;-70.704;2023-12-29T12:22:36;101405.88;;;25.12;45.57
250;BME280;109;19.806;-70.704;2023-12-29T12:25:03;101410.28;;;25.28;45.22
250;BME280;109;19.806;-70.704;2023-12-29T12:27:31;101408.81;;;25.49;45.44
250;BME280;109;19.806;-70.704;2023-12-29T12:29:58;101402.78;;;25.58;45.07
250;BME280;109;19.806;-70.704;2023-12-29T12:32:26;101405.53;;;25.71;44.94
250;BME280;109;19.806;-70.704;2023-12-29T12:35:00;101408.31;;;25.69;44.80
250;BME280;109;19.806;-70.704;2023-12-29T12:37:27;101412.31;;;25.89;44.64
250;BME280;109;19.806;-70.704;2023-12-29T12:39:54;101414.81;;;26.05;44.52
250;BME280;109;19.806;-70.704;2023-12-29T12:42:22;101414.59;;;26.08;44.90
250;BME280;109;19.806;-70.704;2023-12-29T12:45:03;101426.28;;;26.21;44.66
250;BME280;109;19.806;-70.704;2023-12-29T12:47:36;101418.59;;;26.28;44.17
250;BME280;109;19.806;-70.704;2023-12-29T12:50:05;101415.63;;;26.43;44.26
250;BME280;109;19.806;-70.704;2023-12-29T12:52:32;101427.09;;;26.47;44.12
250;BME280;109;19.806;-70.704;2023-12-29T12:54:59;101437.47;;;26.66;43.78
250;BME280;109;19.806;-70.704;2023-12-29T12:57:26;101441.19;;;26.88;43.31
250;BME280;109;19.806;-70.704;2023-12-29T12:59:53;101433.00;;;27.01;43.38
250;BME280;109;19.806;-70.704;2023-12-29T13:02:20;101439.72;;;27.08;43.13
250;BME280;109;19.806;-70.704;2023-12-29T13:04:47;101439.78;;;27.31;43.22
250;BME280;109;19.806;-70.704;2023-12-29T13:07:18;101444.59;;;27.03;42.42
250;BME280;109;19.806;-70.704;2023-12-29T13:09:45;101455.84;;;27.10;42.46
250;BME280;109;19.806;-70.704;2023-12-29T13:12:14;101451.00;;;27.02;42.66
250;BME280;109;19.806;-70.704;2023-12-29T13:14:42;101455.59;;;27.37;42.15
250;BME280;109;19.806;-70.704;2023-12-29T13:17:12;101458.34;;;27.48;42.16
250;BME280;109;19.806;-70.704;2023-12-29T13:19:40;101466.81;;;27.56;42.47
250;BME280;109;19.806;-70.704;2023-12-29T13:22:08;101464.22;;;27.54;41.96
250;BME280;109;19.806;-70.704;2023-12-29T13:24:35;101473.00;;;27.45;42.00
250;BME280;109;19.806;-70.704;2023-12-29T13:27:08;101468.81;;;27.41;42.70
250;BME280;109;19.806;-70.704;2023-12-29T13:29:35;101462.03;;;27.47;42.61
250;BME280;109;19.806;-70.704;2023-12-29T13:32:07;101475.34;;;27.74;42.52
250;BME280;109;19.806;-70.704;2023-12-29T13:34:47;101474.34;;;27.75;42.56
250;BME280;109;19.806;-70.704;2023-12-29T13:39:59;101490.47;;;27.65;43.13
250;BME280;109;19.806;-70.704;2023-12-29T13:42:30;101493.25;;;27.52;43.44
250;BME280;109;19.806;-70.704;2023-12-29T13:44:59;101500.94;;;27.70;43.13